Time;durP1;ratioP1;P1;durP2;ratioP2;P2;SDS_P1;SDS_P2;PMS_P1;PMS_P2;Temp;Humidity;BMP_temperature;BMP_pressure;BME280_temperature;BME280_humidity;BME280_pressure;Samples;Min_cycle;Max_cycle;Signal;HPM_P1;HPM_P2
2022/05/09 00:01:56;;;;;;;0.20;0.20;;;6.10;99.90;;;;;;5113701;28;20054;-89
2022/05/09 00:04:23;;;;;;;0.20;0.20;;;6.30;99.90;;;;;;5130237;28;20048;-88
2022/05/09 00:06:50;;;;;;;0.17;0.17;;;6.00;99.90;;;;;;5097174;28;20035;-87
2022/05/09 00:09:18;;;;;;;0.10;0.10;;;5.90;99.90;;;;;;5114323;28;20036;-88
2022/05/09 00:11:44;;;;;;;0.10;0.10;;;6.60;99.90;;;;;;5130921;28;20130;-87
2022/05/09 00:14:12;;;;;;;0.10;0.10;;;6.10;99.90;;;;;;5096850;28;20085;-87
2022/05/09 00:16:39;;;;;;;0.20;0.20;;;5.80;99.90;;;;;;5097342;28;20110;-87
2022/05/09 00:19:09;;;;;;;0.10;0.10;;;6.20;99.90;;;;;;5133991;28;20048;-88
2022/05/09 00:21:38;;;;;;;0.20;0.20;;;5.80;99.90;;;;;;5120831;28;20044;-89
2022/05/09 00:24:08;;;;;;;0.10;0.10;;;6.00;99.90;;;;;;5130774;28;20109;-89
2022/05/09 00:26:34;;;;;;;0.20;0.20;;;5.80;99.90;;;;;;5113719;28;20036;-89
2022/05/09 00:29:03;;;;;;;0.10;0.10;;;5.80;99.90;;;;;;5096684;28;20039;-90
2022/05/09 00:31:30;;;;;;;0.10;0.10;;;6.60;99.90;;;;;;5113644;28;20040;-90
2022/05/09 00:33:56;;;;;;;0.20;0.20;;;5.70;99.90;;;;;;5103814;28;20043;-90
2022/05/09 00:36:23;;;;;;;0.10;0.10;;;5.70;99.90;;;;;;5100780;28;20088;-89
2022/05/09 00:38:50;;;;;;;0.10;0.10;;;5.70;99.90;;;;;;5100395;28;20050;-87
2022/05/09 00:44:14;;;;;;;0.10;0.10;;;5.60;99.90;;;;;;5148016;28;20048;-89
2022/05/09 00:46:46;;;;;;;0.20;0.20;;;5.60;99.90;;;;;;5113639;28;20040;-89
2022/05/09 00:49:31;;;;;;;0.15;0.15;;;6.10;99.90;;;;;;5113431;28;20040;-88
2022/05/09 00:52:38;;;;;;;0.20;0.20;;;5.60;99.90;;;;;;5112931;28;20461;-89
2022/05/09 00:55:15;;;;;;;0.13;0.13;;;5.60;99.90;;;;;;5066186;28;20523;-87
2022/05/09 00:57:50;;;;;;;0.20;0.20;;;5.50;99.90;;;;;;5106078;28;20059;-89
2022/05/09 01:00:20;;;;;;;0.20;0.20;;;5.50;99.90;;;;;;5113098;28;20128;-87
2022/05/09 01:02:50;;;;;;;0.20;0.20;;;5.50;99.90;;;;;;5112921;28;20086;-87
2022/05/09 01:05:17;;;;;;;0.20;0.20;;;5.50;99.90;;;;;;5112657;28;20126;-89
2022/05/09 01:07:44;;;;;;;0.20;0.20;;;5.50;99.90;;;;;;5112994;28;20044;-89
2022/05/09 01:10:14;;;;;;;0.15;0.15;;;5.50;99.90;;;;;;5079829;28;20154;-87
2022/05/09 01:12:42;;;;;;;0.20;0.20;;;6.10;99.90;;;;;;5096808;28;20401;-88
2022/05/09 01:15:13;;;;;;;0.40;0.40;;;5.40;99.90;;;;;;5096496;28;20104;-88
2022/05/09 01:17:40;;;;;;;0.10;0.10;;;5.60;99.90;;;;;;5130687;28;20740;-87
2022/05/09 01:20:09;;;;;;;0.20;0.20;;;5.50;99.90;;;;;;5132871;28;20126;-88
2022/05/09 01:22:38;;;;;;;0.20;0.20;;;5.40;99.90;;;;;;5133273;28;20043;-88
2022/05/09 01:25:09;;;;;;;0.20;0.20;;;5.40;99.90;;;;;;5133256;28;20100;-87
2022/05/09 01:27:38;;;;;;;0.13;0.13;;;5.40;99.90;;;;;;5132905;28;20177;-87
2022/05/09 01:30:47;;;;;;;0.20;0.20;;;5.40;99.90;;;;;;5132599;28;20096;-87
2022/05/09 01:33:20;;;;;;;0.20;0.20;;;5.30;99.90;;;;;;5085690;28;20045;-89
2022/05/09 01:36:09;;;;;;;0.20;0.20;;;5.30;99.90;;;;;;5055508;28;20083;-88
2022/05/09 01:38:56;;;;;;;0.20;0.20;;;5.40;99.90;;;;;;5111412;28;20048;-89
2022/05/09 01:41:24;;;;;;;0.10;0.10;;;5.30;99.90;;;;;;5112801;28;20093;-89
2022/05/09 01:43:55;;;;;;;0.20;0.20;;;5.30;99.90;;;;;;5079395;28;20122;-89
2022/05/09 01:46:25;;;;;;;0.20;0.20;;;5.30;99.90;;;;;;5111796;28;20040;-89
2022/05/09 01:51:39;;;;;;;0.20;0.20;;;5.30;99.90;;;;;;5114329;28;20070;-87
2022/05/09 01:54:07;;;;;;;0.20;0.20;;;5.20;99.90;;;;;;5123520;28;20045;-89
2022/05/09 01:56:35;;;;;;;0.20;0.20;;;5.20;99.90;;;;;;5129621;28;20036;-89
2022/05/09 01:59:04;;;;;;;0.10;0.10;;;5.90;99.90;;;;;;5112027;28;20127;-88
2022/05/09 02:01:40;;;;;;;0.17;0.17;;;5.70;99.90;;;;;;5112303;28;20047;-89
2022/05/09 02:04:07;;;;;;;;;;;5.20;99.90;;;;;;5111952;28;20602;-89
2022/05/09 02:06:34;;;;;;;0.20;0.20;;;5.10;99.90;;;;;;5116292;28;19916;-87
2022/05/09 02:09:00;;;;;;;0.20;0.20;;;5.20;99.90;;;;;;5095536;28;20182;-89
2022/05/09 02:11:27;;;;;;;0.17;0.17;;;5.80;99.90;;;;;;5078027;28;20044;-87
2022/05/09 02:13:54;;;;;;;0.20;0.20;;;5.10;99.90;;;;;;5099191;28;20047;-87
2022/05/09 02:16:21;;;;;;;0.20;0.20;;;5.10;99.90;;;;;;5114664;28;20403;-87
2022/05/09 02:18:47;;;;;;;0.20;0.20;;;5.20;99.90;;;;;;5114898;28;20127;-87
2022/05/09 02:21:14;;;;;;;0.35;0.35;;;5.00;99.90;;;;;;5097973;28;20040;-89
2022/05/09 02:23:42;;;;;;;0.10;0.10;;;5.10;99.90;;;;;;5125905;28;20036;-89
2022/05/09 02:26:09;;;;;;;0.20;0.20;;;5.20;99.90;;;;;;5111168;28;20044;-89
2022/05/09 02:28:36;;;;;;;0.20;0.20;;;5.00;99.90;;;;;;5094897;28;20067;-89
2022/05/09 02:31:03;;;;;;;0.20;0.20;;;5.00;99.90;;;;;;5094883;28;20051;-89
2022/05/09 02:33:29;;;;;;;0.20;0.20;;;5.00;99.90;;;;;;5094969;28;20127;-88
2022/05/09 02:35:56;;;;;;;0.20;0.20;;;5.00;99.90;;;;;;5094878;28;20054;-89
2022/05/09 02:38:24;;;;;;;0.13;0.13;;;4.90;99.90;;;;;;5094743;28;20127;-89
2022/05/09 02:40:52;;;;;;;0.20;0.20;;;4.90;99.90;;;;;;5094983;28;20040;-87
2022/05/09 02:43:19;;;;;;;0.20;0.20;;;5.10;99.90;;;;;;5112784;28;20416;-88
2022/05/09 02:45:45;;;;;;;0.10;0.10;;;4.90;99.90;;;;;;5103711;28;20043;-89
2022/05/09 02:48:13;;;;;;;0.20;0.20;;;5.40;99.90;;;;;;5097601;28;20571;-89
2022/05/09 02:50:40;;;;;;;0.10;0.10;;;4.90;99.90;;;;;;5148069;28;20122;-93
2022/05/09 02:53:10;;;;;;;0.17;0.17;;;4.90;99.90;;;;;;5116589;28;20070;-87
2022/05/09 02:55:37;;;;;;;0.20;0.20;;;4.90;99.90;;;;;;5094708;28;20035;-87
2022/05/09 02:58:04;;;;;;;0.20;0.20;;;4.90;99.90;;;;;;5094232;28;20028;-87
2022/05/09 03:00:31;;;;;;;0.17;0.17;;;4.90;99.90;;;;;;5111566;28;20046;-89
2022/05/09 03:05:46;;;;;;;0.30;0.30;;;4.80;99.90;;;;;;5113607;28;20052;-87
2022/05/09 03:08:14;;;;;;;0.20;0.20;;;4.60;99.90;;;;;;5111169;28;20086;-87
2022/05/09 03:10:41;;;;;;;0.20;0.20;;;4.80;99.90;;;;;;5111145;28;20082;-87
2022/05/09 03:13:09;;;;;;;0.20;0.20;;;5.10;99.90;;;;;;5116781;28;20036;-90
2022/05/09 03:15:40;;;;;;;0.20;0.20;;;4.80;99.90;;;;;;5114087;28;20075;-87
2022/05/09 03:18:07;;;;;;;0.20;0.20;;;4.80;99.90;;;;;;5131545;28;20040;-89
2022/05/09 03:20:36;;;;;;;0.20;0.20;;;4.80;99.90;;;;;;5114202;28;20377;-89
2022/05/09 03:23:05;;;;;;;0.10;0.10;;;4.80;99.90;;;;;;5114461;28;20131;-89
2022/05/09 03:25:33;;;;;;;0.17;0.17;;;4.80;99.90;;;;;;5131655;28;20032;-89
2022/05/09 03:28:00;;;;;;;0.10;0.10;;;4.80;99.90;;;;;;5131246;28;20042;-90
2022/05/09 03:30:28;;;;;;;0.20;0.20;;;4.80;99.90;;;;;;5096864;28;20036;-90
2022/05/09 03:32:54;;;;;;;0.20;0.20;;;4.80;99.90;;;;;;5129596;28;20180;-87
2022/05/09 03:35:21;;;;;;;0.20;0.20;;;5.30;99.90;;;;;;5130301;28;20504;-87
2022/05/09 03:37:48;;;;;;;0.20;0.20;;;4.90;99.90;;;;;;5114092;28;20130;-89
2022/05/09 03:40:15;;;;;;;0.20;0.20;;;5.20;99.90;;;;;;5097223;28;20126;-87
2022/05/09 03:42:42;;;;;;;0.20;0.20;;;4.90;99.90;;;;;;5130669;28;20552;-89
2022/05/09 03:45:08;;;;;;;0.10;0.10;;;5.60;99.90;;;;;;5097677;28;20081;-87
2022/05/09 03:47:36;;;;;;;0.17;0.17;;;4.90;99.90;;;;;;5097369;28;20498;-87
2022/05/09 03:50:03;;;;;;;0.20;0.20;;;5.90;99.90;;;;;;5130649;28;20133;-87
2022/05/09 03:52:30;;;;;;;0.20;0.20;;;5.00;99.90;;;;;;5132245;28;20039;-87
2022/05/09 03:54:57;;;;;;;0.20;0.20;;;5.00;99.90;;;;;;5117808;28;20051;-87
2022/05/09 03:57:24;;;;;;;0.20;0.20;;;5.50;99.90;;;;;;5135087;28;20081;-89
2022/05/09 03:59:51;;;;;;;0.20;0.20;;;5.70;99.90;;;;;;5118101;28;20040;-87
2022/05/09 04:02:18;;;;;;;0.10;0.10;;;5.60;99.90;;;;;;5117273;28;20055;-87
2022/05/09 04:04:44;;;;;;;0.20;0.20;;;5.00;99.90;;;;;;5117058;28;20044;-89
2022/05/09 04:07:11;;;;;;;0.20;0.20;;;5.20;99.90;;;;;;5117578;28;20090;-90
2022/05/09 04:09:38;;;;;;;0.20;0.20;;;5.10;99.90;;;;;;5117510;28;20079;-87
2022/05/09 04:12:05;;;;;;;0.20;0.20;;;5.10;99.90;;;;;;5134318;28;20044;-88
2022/05/09 04:17:17;;;;;;;0.20;0.20;;;5.20;99.90;;;;;;5102746;28;20612;-89
2022/05/09 04:19:44;;;;;;;0.20;0.20;;;5.10;99.90;;;;;;5080659;28;20036;-89
2022/05/09 04:22:11;;;;;;;0.20;0.20;;;5.20;99.90;;;;;;5113875;28;20040;-89
2022/05/09 04:24:37;;;;;;;0.20;0.20;;;5.20;99.90;;;;;;5097304;28;20036;-89
2022/05/09 04:27:05;;;;;;;0.20;0.20;;;5.20;99.90;;;;;;5080755;28;20047;-87
2022/05/09 04:29:32;;;;;;;0.20;0.20;;;5.20;99.90;;;;;;5113649;28;20075;-87
2022/05/09 04:31:58;;;;;;;0.20;0.20;;;5.20;99.90;;;;;;5097013;28;20086;-87
2022/05/09 04:34:25;;;;;;;0.88;0.85;;;5.20;99.90;;;;;;5080433;28;20128;-87
2022/05/09 04:36:52;;;;;;;0.10;0.10;;;5.30;99.90;;;;;;5096672;28;20079;-91
2022/05/09 04:39:21;;;;;;;0.20;0.20;;;5.40;99.90;;;;;;5097522;28;20040;-89
2022/05/09 04:41:47;;;;;;;0.20;0.20;;;5.10;99.90;;;;;;5112838;28;20071;-87
2022/05/09 04:44:14;;;;;;;0.20;0.20;;;5.40;99.90;;;;;;5081697;28;20040;-89
2022/05/09 04:46:42;;;;;;;0.20;0.20;;;5.50;99.90;;;;;;5133442;28;20036;-87
2022/05/09 04:49:09;;;;;;;0.20;0.20;;;5.50;99.90;;;;;;5100808;28;20046;-88
2022/05/09 04:51:35;;;;;;;0.20;0.20;;;5.60;99.90;;;;;;5116612;28;20035;-89
2022/05/09 04:54:02;;;;;;;0.20;0.20;;;6.30;99.90;;;;;;5099932;28;20401;-87
2022/05/09 04:56:29;;;;;;;0.17;0.17;;;5.70;99.90;;;;;;5116538;28;20035;-89
2022/05/09 04:58:55;;;;;;;0.10;0.10;;;6.60;99.90;;;;;;5117227;28;20047;-89
2022/05/09 05:01:22;;;;;;;0.20;0.20;;;5.80;99.90;;;;;;5100031;28;20036;-87
2022/05/09 05:03:49;;;;;;;0.20;0.20;;;5.90;99.90;;;;;;5098329;28;20040;-87
2022/05/09 05:06:16;;;;;;;0.20;0.20;;;6.80;99.90;;;;;;5096412;28;20052;-88
2022/05/09 05:08:42;;;;;;;0.15;0.15;;;6.10;99.90;;;;;;5112768;28;20040;-87
2022/05/09 05:11:09;;;;;;;0.15;0.15;;;6.00;99.90;;;;;;5096614;28;20081;-89
2022/05/09 05:13:36;;;;;;;0.20;0.20;;;6.10;99.90;;;;;;5095641;28;20557;-86
2022/05/09 05:16:02;;;;;;;0.20;0.20;;;6.20;99.90;;;;;;5087099;28;20516;-88
2022/05/09 05:18:32;;;;;;;0.20;0.20;;;6.30;99.90;;;;;;5095640;28;20044;-89
2022/05/09 05:21:06;;;;;;;0.10;0.10;;;6.90;99.90;;;;;;5112895;28;20036;-87
2022/05/09 05:23:33;;;;;;;0.10;0.10;;;6.40;99.90;;;;;;5097055;28;20036;-89
2022/05/09 05:26:00;;;;;;;0.10;0.10;;;6.50;99.90;;;;;;5079533;28;20036;-87
2022/05/09 05:28:27;;;;;;;0.20;0.20;;;6.80;99.90;;;;;;5079601;28;20043;-87
2022/05/09 05:30:53;;;;;;;0.20;0.20;;;6.70;99.90;;;;;;5096347;28;20036;-87
2022/05/09 05:33:21;;;;;;;0.10;0.10;;;6.70;99.90;;;;;;5080437;28;20043;-90
2022/05/09 05:35:48;;;;;;;0.15;0.15;;;6.80;99.90;;;;;;5096821;28;20032;-89
2022/05/09 05:38:14;;;;;;;0.17;0.17;;;6.80;99.90;;;;;;5094011;28;20039;-87
2022/05/09 05:40:41;;;;;;;0.28;0.28;;;6.90;99.90;;;;;;5107833;28;20484;-89
2022/05/09 05:43:08;;;;;;;0.15;0.15;;;6.90;99.90;;;;;;5095786;28;20130;-88
2022/05/09 05:45:34;;;;;;;0.20;0.20;;;7.10;99.90;;;;;;5095415;28;20035;-87
2022/05/09 05:48:01;;;;;;;0.17;0.17;;;7.10;99.90;;;;;;5080557;28;20036;-87
2022/05/09 05:50:28;;;;;;;0.10;0.10;;;7.20;99.90;;;;;;5116584;28;20067;-87
2022/05/09 05:52:55;;;;;;;0.20;0.20;;;7.30;99.90;;;;;;5097681;28;20405;-87
2022/05/09 05:55:22;;;;;;;0.17;0.17;;;7.30;99.90;;;;;;5088104;28;20408;-87
2022/05/09 05:57:49;;;;;;;0.10;0.10;;;7.40;99.90;;;;;;5106581;28;20040;-86
2022/05/09 06:00:21;;;;;;;0.10;0.10;;;7.50;99.90;;;;;;5112066;28;20040;-89
2022/05/09 06:02:49;;;;;;;0.10;0.10;;;7.50;99.90;;;;;;5111489;28;20032;-92
2022/05/09 06:05:18;;;;;;;0.20;0.20;;;7.60;99.90;;;;;;5110739;28;20051;-86
2022/05/09 06:07:47;;;;;;;0.20;0.20;;;7.70;99.90;;;;;;5111757;28;20044;-90
2022/05/09 06:10:15;;;;;;;0.10;0.10;;;7.80;99.90;;;;;;5128275;28;20564;-90
2022/05/09 06:12:42;;;;;;;0.13;0.13;;;8.50;99.90;;;;;;5114742;28;20145;-86
2022/05/09 06:15:25;;;;;;;0.10;0.10;;;8.00;99.90;;;;;;5097759;28;20126;-87
2022/05/09 06:17:52;;;;;;;0.10;0.10;;;8.10;99.90;;;;;;5110891;28;20126;-87
2022/05/09 06:20:20;;;;;;;0.10;0.10;;;8.20;99.90;;;;;;5132241;28;20074;-88
2022/05/09 06:22:47;;;;;;;0.17;0.17;;;8.20;99.90;;;;;;5110444;28;20122;-87
2022/05/09 06:25:16;;;;;;;0.10;0.10;;;8.40;99.90;;;;;;5077783;28;20127;-87
2022/05/09 06:27:43;;;;;;;0.10;0.10;;;8.40;99.90;;;;;;5110470;28;20068;-87
2022/05/09 06:30:12;;;;;;;0.10;0.10;;;8.50;99.90;;;;;;5086980;28;20082;-87
2022/05/09 06:32:39;;;;;;;0.10;0.10;;;8.50;99.90;;;;;;5110616;28;20497;-87
2022/05/09 06:35:09;;;;;;;0.10;0.10;;;8.60;99.90;;;;;;5096937;28;20078;-87
2022/05/09 06:37:38;;;;;;;0.10;0.10;;;8.70;99.90;;;;;;5110601;28;20047;-88
2022/05/09 06:40:07;;;;;;;0.20;0.20;;;8.80;99.90;;;;;;5094880;28;20561;-88
2022/05/09 06:42:35;;;;;;;0.10;0.10;;;8.90;99.90;;;;;;5110485;28;20036;-88
2022/05/09 06:45:02;;;;;;;0.10;0.10;;;9.00;99.90;;;;;;5121471;28;20119;-88
2022/05/09 06:47:30;;;;;;;0.10;0.10;;;9.10;99.90;;;;;;5117648;28;20043;-88
2022/05/09 06:50:07;;;;;;;0.10;0.10;;;9.30;99.90;;;;;;5097092;28;20043;-88
2022/05/09 06:52:36;;;;;;;0.10;0.10;;;9.40;99.90;;;;;;5094562;28;20086;-87
2022/05/09 06:55:05;;;;;;;0.10;0.10;;;9.60;99.90;;;;;;5078831;28;20064;-88
2022/05/09 06:57:33;;;;;;;0.10;0.10;;;9.70;99.90;;;;;;5128757;28;20062;-87
2022/05/09 06:59:59;;;;;;;0.10;0.10;;;9.80;99.90;;;;;;5101997;28;20046;-88
2022/05/09 07:02:26;;;;;;;0.10;0.10;;;9.90;99.90;;;;;;5103529;28;20035;-88
2022/05/09 07:04:53;;;;;;;0.10;0.10;;;10.00;99.90;;;;;;5085570;28;20500;-87
2022/05/09 07:07:20;;;;;;;0.10;0.10;;;10.10;99.90;;;;;;5102490;28;20048;-85
2022/05/09 07:09:46;;;;;;;0.00;0.00;;;10.20;99.90;;;;;;5127745;28;20073;-87
2022/05/09 07:12:13;;;;;;;0.10;0.10;;;10.40;99.90;;;;;;5110285;28;20043;-87
2022/05/09 07:14:40;;;;;;;0.10;0.10;;;10.60;99.90;;;;;;5103491;28;20499;-87
2022/05/09 07:17:07;;;;;;;0.05;0.05;;;10.70;99.90;;;;;;5103139;28;20099;-88
2022/05/09 07:19:33;;;;;;;0.10;0.10;;;10.80;99.90;;;;;;5102671;28;20118;-87
2022/05/09 07:22:00;;;;;;;0.20;0.20;;;10.90;99.90;;;;;;5118808;28;20035;-87
2022/05/09 07:24:29;;;;;;;0.10;0.10;;;11.10;99.90;;;;;;5113599;28;20035;-88
2022/05/09 07:26:56;;;;;;;0.10;0.10;;;11.60;99.90;;;;;;5112565;28;20130;-86
2022/05/09 07:29:23;;;;;;;0.10;0.10;;;11.50;99.90;;;;;;5093957;28;20120;-88
2022/05/09 07:31:50;;;;;;;0.10;0.10;;;11.60;99.90;;;;;;5109521;28;20475;-87
2022/05/09 07:34:16;;;;;;;0.10;0.10;;;11.80;99.90;;;;;;5093010;28;20084;-87
2022/05/09 07:36:43;;;;;;;0.10;0.10;;;11.90;99.90;;;;;;5109841;28;20077;-87
2022/05/09 07:39:10;;;;;;;0.10;0.10;;;12.00;99.90;;;;;;5126189;28;20553;-88
2022/05/09 07:41:36;;;;;;;0.00;0.00;;;12.00;99.90;;;;;;5099771;28;20051;-88
2022/05/09 07:44:03;;;;;;;0.17;0.10;;;12.20;99.90;;;;;;5119547;28;20032;-90
2022/05/09 07:46:30;;;;;;;0.00;0.00;;;12.30;99.90;;;;;;5077383;28;20032;-88
2022/05/09 07:48:57;;;;;;;0.10;0.10;;;12.50;99.90;;;;;;5098196;28;20085;-88
2022/05/09 07:51:23;;;;;;;0.10;0.10;;;12.60;99.90;;;;;;5111429;28;20095;-86
2022/05/09 07:53:51;;;;;;;0.00;0.00;;;12.80;99.90;;;;;;5097233;28;20377;-86
2022/05/09 07:56:18;;;;;;;0.10;0.10;;;12.90;99.90;;;;;;5110880;28;20040;-87
2022/05/09 07:58:45;;;;;;;0.00;0.00;;;13.10;99.90;;;;;;5104549;28;20065;-85
2022/05/09 08:01:11;;;;;;;0.03;0.03;;;13.30;99.90;;;;;;5094810;28;20078;-85
2022/05/09 08:03:39;;;;;;;0.00;0.00;;;13.30;99.90;;;;;;5095652;28;20040;-88
2022/05/09 08:06:06;;;;;;;0.00;0.00;;;13.50;99.90;;;;;;5093389;28;20037;-86
2022/05/09 08:08:36;;;;;;;0.00;0.00;;;13.60;99.90;;;;;;5130001;28;20476;-86
2022/05/09 08:11:03;;;;;;;0.10;0.10;;;13.70;99.90;;;;;;5114139;28;20035;-87
2022/05/09 08:13:33;;;;;;;0.10;0.10;;;13.90;99.90;;;;;;5112645;28;20093;-86
2022/05/09 08:16:03;;;;;;;0.00;0.00;;;14.00;99.90;;;;;;5128876;28;20038;-87
2022/05/09 08:18:31;;;;;;;0.00;0.00;;;14.20;99.90;;;;;;5129082;28;20039;-86
2022/05/09 08:20:59;;;;;;;0.10;0.10;;;14.40;99.90;;;;;;5096526;28;20050;-86
2022/05/09 08:23:27;;;;;;;0.00;0.00;;;14.40;99.90;;;;;;5112720;28;20043;-86
2022/05/09 08:25:55;;;;;;;0.00;0.00;;;14.50;99.90;;;;;;5129554;28;20046;-86
2022/05/09 08:28:22;;;;;;;0.00;0.00;;;14.50;99.90;;;;;;5096541;28;20042;-86
2022/05/09 08:30:51;;;;;;;0.00;0.00;;;14.60;99.90;;;;;;5129646;28;20040;-86
2022/05/09 08:33:21;;;;;;;0.00;0.00;;;14.80;99.90;;;;;;5080453;28;20071;-86
2022/05/09 08:35:50;;;;;;;0.00;0.00;;;15.00;99.90;;;;;;5092921;28;20047;-86
2022/05/09 08:38:19;;;;;;;0.10;0.10;;;15.20;99.90;;;;;;5126686;28;20062;-86
2022/05/09 08:41:01;;;;;;;0.00;0.00;;;15.20;99.90;;;;;;5112826;28;20043;-86
2022/05/09 08:43:59;;;;;;;0.00;0.00;;;15.30;99.90;;;;;;5117404;28;20058;-85
2022/05/09 08:47:16;;;;;;;0.10;0.10;;;15.50;99.90;;;;;;5129890;28;20040;-86
2022/05/09 08:50:07;;;;;;;0.00;0.00;;;15.70;99.90;;;;;;5090078;28;20135;-87
2022/05/09 08:52:59;;;;;;;0.00;0.00;;;15.90;99.90;;;;;;5122377;28;20046;-86
2022/05/09 08:55:33;;;;;;;0.00;0.00;;;16.00;99.90;;;;;;5133267;28;20043;-86
2022/05/09 08:58:09;;;;;;;0.00;0.00;;;16.20;99.90;;;;;;5132612;28;20035;-85
2022/05/09 09:00:37;;;;;;;0.15;0.10;;;16.30;99.90;;;;;;5149964;28;20046;-86
2022/05/09 09:03:37;;;;;;;0.10;0.10;;;16.50;99.90;;;;;;5115382;28;20528;-86
2022/05/09 09:06:14;;;;;;;0.00;0.00;;;16.60;99.30;;;;;;5132825;28;20058;-86
2022/05/09 09:09:06;;;;;;;0.20;0.13;;;16.70;99.90;;;;;;5149805;28;20442;-86
2022/05/09 09:11:38;;;;;;;0.25;0.10;;;16.70;99.90;;;;;;5133037;28;20137;-86
2022/05/09 09:14:30;;;;;;;0.00;0.00;;;16.80;99.90;;;;;;5131850;28;20039;-85
2022/05/09 09:17:13;;;;;;;0.00;0.00;;;16.80;98.10;;;;;;5131915;28;20046;-86
2022/05/09 09:19:59;;;;;;;0.00;0.00;;;16.90;99.90;;;;;;5133359;28;20039;-85
2022/05/09 09:22:38;;;;;;;0.30;0.10;;;17.00;97.20;;;;;;5149636;28;20071;-86
2022/05/09 09:25:27;;;;;;;0.00;0.00;;;17.10;99.90;;;;;;5132163;28;20063;-86
2022/05/09 09:28:08;;;;;;;0.10;0.10;;;17.20;92.40;;;;;;5132612;28;20043;-86
2022/05/09 09:30:36;;;;;;;0.38;0.17;;;17.50;96.40;;;;;;5133212;28;20122;-86
2022/05/09 09:33:06;;;;;;;0.00;0.00;;;17.70;95.00;;;;;;5115636;28;20044;-86
2022/05/09 09:35:58;;;;;;;0.10;0.10;;;17.90;94.80;;;;;;5120850;28;20050;-86
2022/05/09 09:38:34;;;;;;;0.28;0.10;;;18.00;96.60;;;;;;5111853;28;20040;-85
2022/05/09 09:41:19;;;;;;;0.08;0.08;;;18.10;95.10;;;;;;5128742;28;20040;-86
2022/05/09 09:43:48;;;;;;;0.20;0.10;;;18.20;92.70;;;;;;5111992;28;20043;-85
2022/05/09 09:46:15;;;;;;;0.43;0.20;;;18.40;94.80;;;;;;5106851;28;20506;-84
2022/05/09 09:48:43;;;;;;;0.75;0.30;;;18.50;97.10;;;;;;5121002;28;20039;-84
2022/05/09 09:51:17;;;;;;;2.20;0.47;;;18.70;96.20;;;;;;5098250;28;20036;-84
2022/05/09 09:53:50;;;;;;;0.28;0.20;;;18.70;93.40;;;;;;5129746;28;20043;-86
2022/05/09 09:56:22;;;;;;;0.10;0.10;;;18.80;92.50;;;;;;5131567;28;20407;-85
2022/05/09 09:58:55;;;;;;;0.85;0.20;;;18.90;93.00;;;;;;5131085;28;20122;-85
2022/05/09 10:01:33;;;;;;;0.52;0.35;;;19.00;92.50;;;;;;5125917;28;20043;-85
2022/05/09 10:04:10;;;;;;;0.20;0.15;;;19.20;95.30;;;;;;5104559;28;20097;-85
2022/05/09 10:07:01;;;;;;;0.22;0.20;;;19.30;90.70;;;;;;5130875;28;20081;-83
2022/05/09 10:10:00;;;;;;;0.20;0.20;;;19.40;93.50;;;;;;5113216;28;20089;-87
2022/05/09 10:12:29;;;;;;;7.40;0.35;;;19.40;90.90;;;;;;5144594;28;20048;-82
2022/05/09 10:14:57;;;;;;;0.20;0.13;;;19.50;91.10;;;;;;5148114;28;20044;-84
2022/05/09 10:17:33;;;;;;;0.20;0.20;;;19.50;84.90;;;;;;5130807;28;20046;-85
2022/05/09 10:20:18;;;;;;;0.25;0.25;;;19.50;84.90;;;;;;5131059;28;20449;-83
2022/05/09 10:25:33;;;;;;;0.57;0.17;;;19.80;90.40;;;;;;5133756;28;20126;-85
2022/05/09 10:28:22;;;;;;;0.80;0.32;;;19.90;80.60;;;;;;5118193;28;20040;-86
2022/05/09 10:30:54;;;;;;;0.47;0.20;;;20.00;81.70;;;;;;5120829;28;20563;-82
2022/05/09 10:33:59;;;;;;;0.10;0.10;;;20.10;82.70;;;;;;5120238;28;20036;-83
2022/05/09 10:36:30;;;;;;;0.30;0.30;;;20.20;82.40;;;;;;5112150;28;20131;-85
2022/05/09 10:39:17;;;;;;;0.20;0.20;;;20.30;85.40;;;;;;5130242;28;20510;-85
2022/05/09 10:41:51;;;;;;;0.60;0.30;;;20.40;78.40;;;;;;5130474;28;20043;-82
2022/05/09 10:44:39;;;;;;;0.17;0.10;;;20.40;81.60;;;;;;5127357;28;20039;-85
2022/05/09 10:47:15;;;;;;;0.40;0.30;;;20.60;78.50;;;;;;5127695;28;20519;-88
2022/05/09 10:50:14;;;;;;;0.13;0.13;;;20.60;78.00;;;;;;5110571;28;20071;-88
2022/05/09 10:53:14;;;;;;;0.20;0.20;;;20.70;76.50;;;;;;5087203;28;20054;-87
2022/05/09 10:56:03;;;;;;;0.10;0.05;;;20.80;72.10;;;;;;5129997;28;20075;-84
2022/05/09 10:58:46;;;;;;;0.10;0.10;;;20.90;77.80;;;;;;5130040;28;20043;-87
2022/05/09 11:01:20;;;;;;;0.10;0.05;;;20.90;76.30;;;;;;5108774;28;20051;-84
2022/05/09 11:03:47;;;;;;;0.32;0.20;;;21.00;75.90;;;;;;5119861;28;20082;-86
2022/05/09 11:06:28;;;;;;;0.40;0.20;;;21.10;72.60;;;;;;5112008;28;20051;-86
2022/05/09 11:09:30;;;;;;;0.08;0.08;;;21.20;74.70;;;;;;5130707;28;20103;-87
2022/05/09 11:12:17;;;;;;;0.32;0.20;;;21.20;72.10;;;;;;5130735;28;20044;-86
2022/05/09 11:14:50;;;;;;;0.70;0.15;;;21.30;73.60;;;;;;5130382;28;20122;-86
2022/05/09 11:17:45;;;;;;;0.43;0.32;;;21.30;72.50;;;;;;5146794;28;20043;-87
2022/05/09 11:20:23;;;;;;;0.20;0.20;;;21.40;75.30;;;;;;5129578;28;20092;-86
2022/05/09 11:22:57;;;;;;;0.13;0.13;;;21.40;70.20;;;;;;5111693;28;20467;-84
2022/05/09 11:25:58;;;;;;;0.35;0.20;;;21.40;73.60;;;;;;5129691;28;20565;-86
2022/05/09 11:28:49;;;;;;;0.30;0.20;;;21.50;70.30;;;;;;5129482;28;20400;-84
2022/05/09 11:31:34;;;;;;;0.30;0.30;;;21.60;73.70;;;;;;5118942;28;20089;-84
2022/05/09 11:34:20;;;;;;;0.10;0.10;;;21.70;72.50;;;;;;5135941;28;20496;-84
2022/05/09 11:37:02;;;;;;;;;;;21.70;72.80;;;;;;5110434;28;20075;-87
2022/05/09 11:39:45;;;;;;;0.13;0.13;;;21.70;72.10;;;;;;5121215;28;19916;-87
2022/05/09 11:45:35;;;;;;;0.10;0.10;;;21.70;66.70;;;;;;5143860;28;20044;-85
2022/05/09 11:48:40;;;;;;;0.13;0.13;;;21.90;70.20;;;;;;5131338;28;20031;-85
2022/05/09 11:51:54;;;;;;;0.43;0.28;;;22.00;70.80;;;;;;5113063;28;20523;-85
2022/05/09 11:54:30;;;;;;;0.38;0.30;;;22.10;68.60;;;;;;5124442;28;20420;-88
2022/05/09 11:57:09;;;;;;;0.80;0.30;;;22.00;68.60;;;;;;5129824;28;20040;-86
2022/05/09 11:59:47;;;;;;;0.28;0.20;;;22.10;69.90;;;;;;5129397;28;20040;-87
2022/05/09 12:02:14;;;;;;;1.23;0.45;;;22.20;70.10;;;;;;5129465;28;20063;-86
2022/05/09 12:04:44;;;;;;;0.20;0.20;;;22.20;67.20;;;;;;5129210;28;20040;-88
2022/05/09 12:07:54;;;;;;;0.10;0.10;;;22.20;72.20;;;;;;5128398;28;20496;-87
2022/05/09 12:10:30;;;;;;;0.28;0.20;;;22.30;66.10;;;;;;5070910;28;20032;-87
2022/05/09 12:12:59;;;;;;;0.30;0.30;;;22.20;70.80;;;;;;5120288;28;20443;-86
2022/05/09 12:15:28;;;;;;;0.55;0.30;;;22.20;72.30;;;;;;5146416;28;20500;-86
2022/05/09 12:17:58;;;;;;;0.10;0.10;;;22.30;70.10;;;;;;5134101;28;20078;-87
2022/05/09 12:20:27;;;;;;;0.52;0.30;;;22.30;68.70;;;;;;5133368;28;20591;-86
2022/05/09 12:22:59;;;;;;;0.40;0.30;;;22.40;66.10;;;;;;5131651;28;20046;-86
2022/05/09 12:25:35;;;;;;;1.63;0.43;;;22.40;66.90;;;;;;5131506;28;20039;-87
2022/05/09 12:28:23;;;;;;;0.30;0.30;;;22.40;65.10;;;;;;5133306;28;20040;-86
2022/05/09 12:31:00;;;;;;;0.75;0.30;;;22.50;69.70;;;;;;5151021;28;20038;-86
2022/05/09 12:33:36;;;;;;;0.20;0.10;;;22.40;67.40;;;;;;5132416;28;20097;-86
2022/05/09 12:36:15;;;;;;;0.55;0.25;;;22.40;66.80;;;;;;5132628;28;20127;-87
2022/05/09 12:38:44;;;;;;;0.45;0.35;;;22.30;66.00;;;;;;5133770;28;20035;-86
2022/05/09 12:41:14;;;;;;;1.00;0.30;;;22.40;66.70;;;;;;5133080;28;20050;-86
2022/05/09 12:44:07;;;;;;;0.30;0.20;;;22.30;69.80;;;;;;5122600;28;20036;-86
2022/05/09 12:46:45;;;;;;;0.28;0.17;;;22.50;67.30;;;;;;5126293;28;20128;-87
2022/05/09 12:49:15;;;;;;;0.30;0.30;;;22.60;66.80;;;;;;5133247;28;20036;-87
2022/05/09 12:51:45;;;;;;;0.43;0.30;;;22.70;65.10;;;;;;5149151;28;20567;-87
2022/05/09 12:54:15;;;;;;;0.50;0.30;;;22.60;67.40;;;;;;5132689;28;20051;-86
2022/05/09 12:56:52;;;;;;;0.47;0.25;;;22.90;69.80;;;;;;5116814;28;20122;-88
2022/05/09 12:59:43;;;;;;;0.55;0.28;;;22.70;66.10;;;;;;5133908;28;20177;-88
2022/05/09 13:02:20;;;;;;;0.10;0.10;;;22.70;67.00;;;;;;5134125;28;20040;-89
2022/05/09 13:04:49;;;;;;;0.65;0.30;;;22.80;66.70;;;;;;5097492;28;20040;-89
2022/05/09 13:07:17;;;;;;;1.33;0.45;;;22.80;67.60;;;;;;5113331;28;20052;-89
2022/05/09 13:09:52;;;;;;;0.20;0.20;;;22.70;63.40;;;;;;5113585;28;20043;-89
2022/05/09 13:12:30;;;;;;;0.57;0.32;;;22.70;64.50;;;;;;5119745;28;20047;-88
2022/05/09 13:14:58;;;;;;;0.28;0.20;;;22.70;65.00;;;;;;5133127;28;20048;-88
2022/05/09 13:17:38;;;;;;;0.17;0.15;;;22.80;67.60;;;;;;5115111;28;20076;-88
2022/05/09 13:20:11;;;;;;;0.10;0.10;;;22.80;66.70;;;;;;5113088;28;20062;-88
2022/05/09 13:23:00;;;;;;;0.63;0.32;;;22.90;65.30;;;;;;5112309;28;20143;-87
2022/05/09 13:25:37;;;;;;;0.20;0.20;;;22.90;67.90;;;;;;5133211;28;20039;-86
2022/05/09 13:28:07;;;;;;;0.22;0.20;;;23.00;65.80;;;;;;5111846;28;20055;-86
2022/05/09 13:30:55;;;;;;;0.43;0.38;;;23.00;67.60;;;;;;5110920;28;20119;-85
2022/05/09 13:33:28;;;;;;;0.40;0.40;;;23.00;65.90;;;;;;5123325;28;20047;-84
2022/05/09 13:35:59;;;;;;;0.43;0.20;;;23.10;69.20;;;;;;5129428;28;20043;-83
2022/05/09 13:38:51;;;;;;;;;;;;;;;;;;;;;